Time;durP1;ratioP1;P1;durP2;ratioP2;P2;SDS_P1;SDS_P2;PMS_P1;PMS_P2;Temp;Humidity;BMP_temperature;BMP_pressure;BME280_temperature;BME280_humidity;BME280_pressure;Samples;Min_cycle;Max_cycle;Signal;HPM_P1;HPM_P2
2023/10/12 00:02:26;;;;;;;20.63;8.07;;;;;12.40;96365.00;;;;8308927;28;21129;-63
2023/10/12 00:06:37;;;;;;;21.27;8.60;;;;;12.30;96371.00;;;;8299355;28;20744;-64
2023/10/12 00:10:42;;;;;;;23.83;7.60;;;;;12.30;96362.00;;;;8308497;28;20220;-64
2023/10/12 00:14:45;;;;;;;22.75;8.25;;;;;12.30;96348.00;;;;8297969;28;21273;-63
2023/10/12 00:18:49;;;;;;;16.58;7.32;;;;;12.30;96368.00;;;;8304760;28;20211;-63
2023/10/12 00:22:53;;;;;;;20.40;8.43;;;;;12.30;96357.00;;;;8312192;28;20312;-63
2023/10/12 00:26:58;;;;;;;21.08;8.35;;;;;12.40;96355.00;;;;8306296;28;20197;-63
2023/10/12 00:31:16;;;;;;;17.15;7.70;;;;;12.30;96355.00;;;;8310154;28;20211;-64
2023/10/12 00:35:19;;;;;;;18.75;7.38;;;;;12.30;96351.00;;;;8305237;28;20221;-64
2023/10/12 00:39:29;;;;;;;19.98;7.90;;;;;12.30;96349.00;;;;8303500;28;20296;-64
2023/10/12 00:43:36;;;;;;;17.95;7.50;;;;;12.30;96350.00;;;;8301417;28;20188;-64
2023/10/12 00:47:44;;;;;;;17.52;8.27;;;;;12.40;96353.00;;;;8306421;28;20230;-64
2023/10/12 00:51:52;;;;;;;21.25;8.77;;;;;12.50;96345.00;;;;8302940;28;20982;-64
2023/10/12 00:55:57;;;;;;;20.27;7.85;;;;;12.50;96346.00;;;;8300374;28;20241;-63
2023/10/12 01:00:03;;;;;;;22.23;9.35;;;;;12.50;96343.00;;;;8284087;28;20974;-63
2023/10/12 01:04:15;;;;;;;17.52;7.85;;;;;12.50;96331.00;;;;8292933;28;20243;-63
2023/10/12 01:08:19;;;;;;;20.60;9.13;;;;;12.50;96332.00;;;;8301494;28;20819;-63
2023/10/12 01:12:30;;;;;;;19.77;8.80;;;;;12.60;96326.00;;;;8301304;28;20199;-64
2023/10/12 01:16:54;;;;;;;29.80;9.68;;;;;12.60;96329.00;;;;8304673;28;20224;-64
2023/10/12 01:20:58;;;;;;;21.30;10.10;;;;;12.60;96319.00;;;;8294468;28;20227;-64
2023/10/12 01:25:11;;;;;;;23.30;9.65;;;;;12.70;96321.00;;;;8296964;28;20971;-64
2023/10/12 01:29:20;;;;;;;22.48;8.98;;;;;12.70;96320.00;;;;8303758;28;20202;-63
2023/10/12 01:33:23;;;;;;;26.90;8.98;;;;;12.60;96322.00;;;;8302559;28;20201;-64
2023/10/12 01:37:26;;;;;;;18.70;7.75;;;;;12.60;96319.00;;;;8307418;28;20717;-64
2023/10/12 01:41:32;;;;;;;33.13;9.60;;;;;12.60;96322.00;;;;8309342;28;20337;-64
2023/10/12 01:45:41;;;;;;;15.52;7.88;;;;;12.70;96322.00;;;;8304190;28;20209;-64
2023/10/12 01:49:45;;;;;;;19.67;8.02;;;;;12.70;96318.00;;;;8294634;28;20232;-64
2023/10/12 01:53:49;;;;;;;23.23;7.55;;;;;12.80;96322.00;;;;8305393;28;20208;-63
2023/10/12 01:57:54;;;;;;;22.42;8.15;;;;;12.90;96332.00;;;;8298283;28;20245;-63
2023/10/12 02:02:07;;;;;;;19.85;8.23;;;;;12.80;96328.00;;;;8302925;28;20272;-64
2023/10/12 02:06:16;;;;;;;18.83;7.57;;;;;12.70;96329.00;;;;8301784;28;20255;-64
2023/10/12 02:10:24;;;;;;;20.80;8.00;;;;;12.70;96330.00;;;;8302622;28;20194;-64
2023/10/12 02:14:32;;;;;;;23.58;8.23;;;;;12.60;96324.00;;;;8298592;28;20816;-63
2023/10/12 02:18:36;;;;;;;20.02;8.13;;;;;12.50;96327.00;;;;8291354;28;20264;-64
2023/10/12 02:22:39;;;;;;;22.55;7.97;;;;;12.40;96326.00;;;;8298048;28;20195;-63
2023/10/12 02:26:52;;;;;;;18.23;8.13;;;;;12.20;96332.00;;;;8307415;28;20212;-63
2023/10/12 02:30:58;;;;;;;21.08;8.30;;;;;12.10;96336.00;;;;8307993;28;20628;-63
2023/10/12 02:35:11;;;;;;;20.48;8.27;;;;;12.10;96336.00;;;;8305004;28;20199;-65
2023/10/12 02:39:20;;;;;;;24.15;7.88;;;;;12.10;96335.00;;;;8307200;28;20231;-63
2023/10/12 02:43:27;;;;;;;18.52;7.68;;;;;12.10;96334.00;;;;8302790;28;20208;-64
2023/10/12 02:47:33;;;;;;;23.10;8.13;;;;;12.10;96331.00;;;;8301621;28;20199;-64
2023/10/12 02:51:39;;;;;;;23.00;8.85;;;;;12.10;96326.00;;;;8302751;28;20991;-64
2023/10/12 02:55:48;;;;;;;20.33;8.55;;;;;12.10;96333.00;;;;8301747;28;20256;-63
2023/10/12 03:00:00;;;;;;;18.98;8.88;;;;;12.10;96334.00;;;;8309250;28;20254;-63
2023/10/12 03:04:10;;;;;;;20.90;8.30;;;;;12.10;96328.00;;;;8291464;22;20268;-63
2023/10/12 03:08:14;;;;;;;18.23;8.02;;;;;12.10;96327.00;;;;8238786;28;20216;-64
2023/10/12 03:12:20;;;;;;;27.33;8.80;;;;;12.10;96323.00;;;;8241126;28;20451;-64
2023/10/12 03:16:23;;;;;;;19.90;8.55;;;;;12.10;96325.00;;;;8232868;28;20313;-64
2023/10/12 03:20:29;;;;;;;20.58;7.53;;;;;12.00;96331.00;;;;8236694;28;20641;-64
2023/10/12 03:24:43;;;;;;;17.33;7.60;;;;;12.00;96327.00;;;;8243998;28;20678;-64
2023/10/12 03:28:50;;;;;;;20.20;8.27;;;;;11.90;96340.00;;;;8248282;28;20719;-64
2023/10/12 03:32:53;;;;;;;21.83;7.65;;;;;11.90;96344.00;;;;8246790;28;20839;-64
2023/10/12 03:36:58;;;;;;;30.40;9.23;;;;;12.00;96335.00;;;;8246787;28;20707;-64
2023/10/12 03:45:25;;;;;;;21.30;8.25;;;;;12.20;96326.00;;;;8231194;28;20200;-62
2023/10/12 03:49:39;;;;;;;24.23;8.27;;;;;12.40;96328.00;;;;8245416;28;20198;-64
2023/10/12 03:53:56;;;;;;;17.45;7.88;;;;;12.50;96329.00;;;;8240262;28;20211;-64
2023/10/12 03:58:06;;;;;;;23.38;7.43;;;;;12.60;96324.00;;;;8246431;28;21038;-65
2023/10/12 04:02:15;;;;;;;21.65;8.35;;;;;12.70;96321.00;;;;8245159;28;20855;-64
2023/10/12 04:06:23;;;;;;;15.82;7.90;;;;;12.80;96321.00;;;;8247737;28;20209;-66
2023/10/12 04:14:49;;;;;;;24.90;7.80;;;;;13.10;96325.00;;;;8243716;28;20213;-64
2023/10/12 04:19:03;;;;;;;16.17;6.95;;;;;13.10;96319.00;;;;8244201;28;20226;-64
2023/10/12 04:23:43;;;;;;;16.05;7.32;;;;;13.10;96322.00;;;;8247306;28;20207;-63
2023/10/12 04:27:50;;;;;;;18.98;7.38;;;;;13.10;96323.00;;;;8246047;28;20214;-62
2023/10/12 04:31:56;;;;;;;18.88;7.38;;;;;13.10;96329.00;;;;8240012;28;20653;-63
2023/10/12 04:36:14;;;;;;;25.23;7.05;;;;;13.00;96322.00;;;;8248287;28;20210;-64
2023/10/12 04:44:52;;;;;;;16.83;6.63;;;;;12.90;96329.00;;;;8474570;27;21182;-65
2023/10/12 04:49:29;;;;;;;18.88;7.50;;;;;12.80;96322.00;;;;8474589;27;20203;-64
2023/10/12 04:53:35;;;;;;;18.20;7.72;;;;;12.80;96330.00;;;;8460631;28;20229;-64
2023/10/12 04:57:39;;;;;;;18.75;7.82;;;;;12.80;96330.00;;;;8473745;28;20750;-64
2023/10/12 05:02:06;;;;;;;19.90;7.70;;;;;12.80;96339.00;;;;8472475;28;20316;-64
2023/10/12 05:06:08;;;;;;;19.33;6.90;;;;;12.90;96339.00;;;;8435766;28;20201;-64
2023/10/12 05:10:15;;;;;;;17.63;6.60;;;;;12.90;96344.00;;;;8441651;28;21006;-65
2023/10/12 05:14:19;;;;;;;15.48;7.35;;;;;12.90;96349.00;;;;8440306;28;20194;-64
2023/10/12 05:18:26;;;;;;;16.88;6.55;;;;;12.90;96351.00;;;;8441373;28;20199;-64
2023/10/12 05:22:29;;;;;;;18.13;6.82;;;;;13.10;96359.00;;;;8441628;28;20242;-64
2023/10/12 05:26:32;;;;;;;17.15;7.07;;;;;13.30;96364.00;;;;8440060;28;20201;-65
2023/10/12 05:30:37;;;;;;;18.45;6.40;;;;;13.50;96357.00;;;;8439609;28;20207;-64
2023/10/12 05:34:46;;;;;;;16.98;6.57;;;;;13.60;96364.00;;;;8435094;28;20196;-63
2023/10/12 05:38:51;;;;;;;14.77;6.32;;;;;13.60;96374.00;;;;8441326;28;20231;-62
2023/10/12 05:42:55;;;;;;;14.32;6.03;;;;;13.70;96377.00;;;;8439524;28;20312;-63
2023/10/12 05:47:00;;;;;;;12.82;6.00;;;;;13.80;96389.00;;;;8439523;28;20227;-62
2023/10/12 05:51:04;;;;;;;19.00;6.00;;;;;13.90;96389.00;;;;8439263;28;20746;-62
2023/10/12 05:55:19;;;;;;;16.15;5.90;;;;;14.10;96386.00;;;;8422560;28;20559;-63
2023/10/12 05:59:24;;;;;;;13.25;5.65;;;;;14.10;96386.00;;;;8417788;28;20290;-62
2023/10/12 06:03:27;;;;;;;23.38;6.65;;;;;14.30;96387.00;;;;8416614;28;20263;-63
2023/10/12 06:07:32;;;;;;;15.77;5.65;;;;;14.40;96393.00;;;;8416860;28;20199;-63
2023/10/12 06:11:35;;;;;;;18.58;6.43;;;;;14.50;96385.00;;;;8418114;28;20210;-63
2023/10/12 06:15:42;;;;;;;16.00;6.53;;;;;14.60;96395.00;;;;8416921;28;20234;-63
2023/10/12 06:19:45;;;;;;;11.07;5.72;;;;;14.70;96396.00;;;;8417125;28;20203;-62
2023/10/12 06:23:51;;;;;;;14.20;6.20;;;;;14.80;96404.00;;;;8414836;28;20215;-63
2023/10/12 06:27:54;;;;;;;16.90;6.25;;;;;14.90;96417.00;;;;8410367;28;20205;-63
2023/10/12 06:31:59;;;;;;;13.23;5.85;;;;;15.00;96426.00;;;;8411800;28;20217;-63
2023/10/12 06:36:04;;;;;;;15.30;5.85;;;;;15.10;96425.00;;;;8415947;28;20264;-63
2023/10/12 06:40:37;;;;;;;17.92;5.50;;;;;15.30;96431.00;;;;8414488;28;20200;-63
2023/10/12 06:44:41;;;;;;;11.18;5.18;;;;;15.60;96439.00;;;;8414240;28;20227;-64
2023/10/12 06:48:47;;;;;;;13.95;5.65;;;;;15.90;96446.00;;;;8416181;28;20202;-63
2023/10/12 06:52:57;;;;;;;14.25;5.35;;;;;16.10;96451.00;;;;8414918;28;20199;-64
2023/10/12 06:57:29;;;;;;;12.82;5.85;;;;;16.30;96459.00;;;;8410533;28;20196;-64
2023/10/12 07:01:37;;;;;;;15.85;5.75;;;;;16.50;96453.00;;;;8411616;28;20216;-64
2023/10/12 07:05:44;;;;;;;21.10;6.10;;;;;16.70;96456.00;;;;8413173;28;21091;-64
2023/10/12 07:09:48;;;;;;;15.30;5.97;;;;;16.80;96460.00;;;;8410091;28;20270;-64
2023/10/12 07:13:53;;;;;;;13.20;6.00;;;;;17.00;96462.00;;;;8413825;28;20608;-63
2023/10/12 07:17:56;;;;;;;10.40;5.38;;;;;17.20;96466.00;;;;8414942;28;20231;-64
2023/10/12 07:22:01;;;;;;;12.13;5.28;;;;;17.50;96469.00;;;;8416375;28;20277;-65
2023/10/12 07:26:12;;;;;;;17.73;5.47;;;;;17.70;96476.00;;;;8412097;28;20282;-64
2023/10/12 07:30:30;;;;;;;15.27;5.57;;;;;17.90;96478.00;;;;8415080;28;20214;-64
2023/10/12 07:34:34;;;;;;;18.10;5.80;;;;;18.10;96470.00;;;;8413563;28;20233;-64
2023/10/12 07:38:37;;;;;;;16.40;6.22;;;;;18.40;96479.00;;;;8415849;28;20227;-64
2023/10/12 07:42:41;;;;;;;17.00;5.93;;;;;18.60;96478.00;;;;8414847;28;20223;-64
2023/10/12 07:46:46;;;;;;;14.68;5.32;;;;;18.60;96478.00;;;;8410789;28;20299;-64
2023/10/12 07:50:50;;;;;;;10.95;5.38;;;;;18.80;96478.00;;;;8405815;28;21924;-64
2023/10/12 07:54:58;;;;;;;17.45;5.43;;;;;19.00;96477.00;;;;8408767;28;20218;-64
2023/10/12 07:59:02;;;;;;;13.57;5.45;;;;;19.10;96476.00;;;;8414148;28;20717;-64
2023/10/12 08:03:19;;;;;;;10.00;5.13;;;;;19.30;96485.00;;;;8412924;28;20230;-64
2023/10/12 08:07:26;;;;;;;14.80;5.60;;;;;19.60;96480.00;;;;8414285;28;20191;-64
2023/10/12 08:11:31;;;;;;;11.27;5.28;;;;;19.80;96468.00;;;;8414251;28;20191;-65
2023/10/12 08:15:49;;;;;;;12.98;5.20;;;;;20.00;96477.00;;;;8412305;28;20684;-65
2023/10/12 08:20:24;;;;;;;16.35;5.65;;;;;20.30;96478.00;;;;8407342;28;20196;-64
2023/10/12 08:24:25;;;;;;;11.98;5.22;;;;;20.40;96497.00;;;;8409234;28;20315;-65
2023/10/12 08:28:36;;;;;;;8.63;4.25;;;;;20.60;96504.00;;;;8412458;28;20198;-64
2023/10/12 08:32:55;;;;;;;18.33;4.75;;;;;20.80;96507.00;;;;8408953;28;20195;-65
2023/10/12 08:37:17;;;;;;;10.88;4.72;;;;;21.10;96498.00;;;;8412236;28;20211;-64
2023/10/12 08:41:33;;;;;;;18.95;5.45;;;;;21.20;96488.00;;;;8407709;28;20199;-64
2023/10/12 08:45:38;;;;;;;13.75;4.70;;;;;21.30;96484.00;;;;8411876;28;20314;-65
2023/10/12 08:49:52;;;;;;;18.80;5.25;;;;;21.50;96487.00;;;;8406792;28;20195;-65
2023/10/12 08:54:01;;;;;;;10.40;4.20;;;;;21.90;96493.00;;;;8412007;28;20231;-64
2023/10/12 08:58:15;;;;;;;15.18;4.82;;;;;22.20;96480.00;;;;8407572;28;20207;-64
2023/10/12 09:02:20;;;;;;;14.00;5.00;;;;;22.40;96478.00;;;;8405727;28;20218;-64
2023/10/12 09:10:57;;;;;;;10.10;4.93;;;;;22.60;96500.00;;;;8405747;28;20199;-64
2023/10/12 09:15:08;;;;;;;19.95;5.75;;;;;22.60;96517.00;;;;8411696;28;20604;-64
2023/10/12 09:19:25;;;;;;;11.60;4.93;;;;;22.70;96515.00;;;;8410945;28;20290;-64
2023/10/12 09:23:31;;;;;;;9.95;4.60;;;;;22.70;96513.00;;;;8412172;28;20663;-64
2023/10/12 09:27:48;;;;;;;11.98;5.57;;;;;22.80;96513.00;;;;8411603;28;21253;-64
2023/10/12 09:32:12;;;;;;;14.48;4.82;;;;;22.90;96520.00;;;;8417668;28;20739;-65
2023/10/12 09:36:19;;;;;;;10.55;4.45;;;;;23.00;96517.00;;;;8418086;28;20195;-63
2023/10/12 09:40:26;;;;;;;11.57;4.82;;;;;23.00;96508.00;;;;8419135;28;20210;-64
2023/10/12 09:44:37;;;;;;;11.20;4.18;;;;;23.00;96506.00;;;;8417816;28;20296;-65
2023/10/12 09:48:44;;;;;;;7.03;4.38;;;;;23.10;96501.00;;;;8414880;28;20220;-64
2023/10/12 09:52:57;;;;;;;12.13;5.00;;;;;23.10;96502.00;;;;8413651;28;20187;-65
2023/10/12 09:57:16;;;;;;;12.10;4.68;;;;;23.20;96509.00;;;;8415445;28;20595;-65
2023/10/12 10:01:36;;;;;;;14.32;5.00;;;;;23.20;96507.00;;;;8416042;28;20944;-65
2023/10/12 10:05:52;;;;;;;10.85;4.50;;;;;23.30;96511.00;;;;8416294;28;20227;-64
2023/10/12 10:09:58;;;;;;;18.30;5.00;;;;;23.40;96509.00;;;;8415453;28;20230;-63
2023/10/12 10:14:03;;;;;;;11.73;4.82;;;;;23.70;96515.00;;;;8411630;28;20207;-64
2023/10/12 10:18:15;;;;;;;11.68;4.68;;;;;23.90;96511.00;;;;8416911;28;20203;-64
2023/10/12 10:22:21;;;;;;;13.50;4.80;;;;;24.00;96506.00;;;;8416372;28;20220;-65
2023/10/12 10:26:30;;;;;;;7.80;4.53;;;;;24.10;96499.00;;;;8416174;28;20253;-64
2023/10/12 10:30:41;;;;;;;12.18;4.90;;;;;24.10;96494.00;;;;8415667;28;20882;-65
2023/10/12 10:34:46;;;;;;;13.25;4.68;;;;;24.30;96494.00;;;;8415261;28;20273;-64
2023/10/12 10:38:53;;;;;;;9.70;4.63;;;;;24.40;96490.00;;;;8414712;28;20567;-65
2023/10/12 10:43:04;;;;;;;10.25;4.05;;;;;24.50;96488.00;;;;8415288;28;20208;-64
2023/10/12 10:47:10;;;;;;;13.57;5.07;;;;;24.50;96477.00;;;;8412549;28;20237;-64
2023/10/12 10:51:19;;;;;;;11.75;4.55;;;;;24.40;96474.00;;;;8415296;28;20191;-65
2023/10/12 10:55:24;;;;;;;9.05;4.63;;;;;24.40;96470.00;;;;8410372;28;20306;-65
2023/10/12 10:59:27;;;;;;;9.35;4.60;;;;;24.50;96478.00;;;;8413700;28;20282;-64
2023/10/12 11:03:34;;;;;;;11.65;4.60;;;;;24.60;96476.00;;;;8412145;28;20628;-63
2023/10/12 11:07:39;;;;;;;10.23;4.45;;;;;24.60;96489.00;;;;8414573;28;20298;-65
2023/10/12 11:11:49;;;;;;;14.45;4.97;;;;;24.70;96489.00;;;;8414501;28;20274;-64
2023/10/12 11:15:56;;;;;;;8.80;4.40;;;;;24.60;96484.00;;;;8415419;28;20291;-65
2023/10/12 11:20:00;;;;;;;9.70;4.63;;;;;24.60;96479.00;;;;8415789;28;20210;-64
2023/10/12 11:24:09;;;;;;;16.58;5.00;;;;;24.50;96470.00;;;;8412528;28;20317;-65
2023/10/12 11:28:20;;;;;;;12.10;5.03;;;;;24.50;96466.00;;;;8409857;28;20200;-64
2023/10/12 11:32:24;;;;;;;8.07;4.57;;;;;24.50;96473.00;;;;8415471;28;20196;-64
2023/10/12 11:36:27;;;;;;;10.93;4.55;;;;;24.40;96469.00;;;;8413517;28;20196;-64
2023/10/12 11:40:32;;;;;;;12.82;5.38;;;;;24.30;96466.00;;;;8415165;28;20206;-64
2023/10/12 11:44:36;;;;;;;8.90;4.75;;;;;24.20;96471.00;;;;8415130;28;20243;-64
2023/10/12 11:48:40;;;;;;;11.75;5.07;;;;;24.30;96470.00;;;;8412740;28;20199;-64
2023/10/12 11:52:50;;;;;;;15.82;4.90;;;;;24.30;96460.00;;;;8413248;28;20617;-64
2023/10/12 11:56:55;;;;;;;14.23;4.68;;;;;24.40;96456.00;;;;8406405;28;20196;-64
2023/10/12 12:01:00;;;;;;;16.70;4.78;;;;;24.60;96463.00;;;;8414842;28;20279;-65
2023/10/12 12:05:05;;;;;;;13.20;4.85;;;;;24.80;96468.00;;;;8407200;28;20250;-64
2023/10/12 12:09:16;;;;;;;9.57;5.05;;;;;25.10;96476.00;;;;8412344;28;20195;-63
2023/10/12 12:13:21;;;;;;;11.77;5.22;;;;;25.20;96485.00;;;;8413796;28;20191;-64
2023/10/12 12:17:26;;;;;;;8.98;4.75;;;;;25.20;96485.00;;;;8412770;28;20227;-65
2023/10/12 12:21:34;;;;;;;14.05;4.93;;;;;25.20;96488.00;;;;8413055;28;20197;-64
2023/10/12 12:25:39;;;;;;;12.93;4.88;;;;;25.10;96485.00;;;;8413341;28;20219;-65
2023/10/12 12:29:45;;;;;;;11.15;4.50;;;;;25.30;96473.00;;;;8412671;28;20207;-64
2023/10/12 12:34:08;;;;;;;12.82;5.05;;;;;25.20;96476.00;;;;8408208;28;20248;-66
2023/10/12 12:38:25;;;;;;;9.65;4.45;;;;;25.20;96466.00;;;;8411176;28;20238;-62
2023/10/12 12:42:29;;;;;;;17.10;4.57;;;;;25.00;96468.00;;;;8412979;28;20212;-65
2023/10/12 12:46:34;;;;;;;9.48;4.53;;;;;24.70;96461.00;;;;8412036;28;20223;-65
2023/10/12 12:50:37;;;;;;;11.35;5.07;;;;;24.50;96469.00;;;;8411995;28;20191;-65
2023/10/12 12:54:40;;;;;;;12.35;5.20;;;;;24.30;96466.00;;;;8410742;28;20227;-65
2023/10/12 12:58:47;;;;;;;9.93;4.47;;;;;24.10;96476.00;;;;8410208;28;20197;-65
2023/10/12 13:02:52;;;;;;;14.32;5.60;;;;;24.00;96473.00;;;;8411985;28;20215;-65
2023/10/12 13:06:56;;;;;;;18.90;4.85;;;;;23.80;96476.00;;;;8413829;28;20231;-65
2023/10/12 13:11:09;;;;;;;14.30;4.90;;;;;23.70;96476.00;;;;8414432;28;20187;-65
2023/10/12 13:15:14;;;;;;;15.00;4.63;;;;;23.60;96483.00;;;;8417192;28;20199;-65
2023/10/12 13:19:19;;;;;;;11.07;4.57;;;;;23.40;96467.00;;;;8420538;28;20954;-66
2023/10/12 13:23:23;;;;;;;8.02;4.20;;;;;23.30;96469.00;;;;8418468;28;20206;-65
2023/10/12 13:27:27;;;;;;;13.95;5.00;;;;;23.20;96463.00;;;;8419636;28;20223;-65
2023/10/12 13:31:30;;;;;;;11.60;4.63;;;;;23.00;96471.00;;;;8419198;28;20729;-65
2023/10/12 13:35:41;;;;;;;20.00;4.68;;;;;22.90;96480.00;;;;8418315;28;20628;-64
2023/10/12 13:39:45;;;;;;;12.05;5.43;;;;;22.80;96483.00;;;;8417418;28;20257;-66
2023/10/12 13:43:48;;;;;;;14.80;5.32;;;;;22.80;96480.00;;;;8419099;28;20659;-64
2023/10/12 13:47:52;;;;;;;19.95;5.72;;;;;22.60;96449.00;;;;8417701;28;20234;-65
2023/10/12 13:51:56;;;;;;;13.63;4.65;;;;;22.20;96461.00;;;;8419594;28;20913;-64
2023/10/12 13:56:01;;;;;;;13.82;5.75;;;;;21.80;96460.00;;;;8416965;28;20752;-64
2023/10/12 14:00:05;;;;;;;13.40;5.28;;;;;21.60;96471.00;;;;8417990;28;20386;-64
2023/10/12 14:04:28;;;;;;;13.45;4.85;;;;;21.60;96465.00;;;;8415144;28;20216;-64
2023/10/12 14:08:35;;;;;;;14.50;5.90;;;;;21.60;96460.00;;;;8418641;28;20199;-64
2023/10/12 14:12:38;;;;;;;12.48;6.05;;;;;21.60;96471.00;;;;8414999;28;20194;-64
2023/10/12 14:16:41;;;;;;;14.75;7.15;;;;;21.60;96435.00;;;;8415394;28;20596;-64
2023/10/12 14:20:45;;;;;;;15.68;7.22;;;;;21.40;96445.00;;;;8418563;28;20604;-64
2023/10/12 14:24:50;;;;;;;13.90;5.93;;;;;21.30;96452.00;;;;8414450;28;20258;-64
2023/10/12 14:28:55;;;;;;;12.70;5.47;;;;;21.30;96456.00;;;;8409903;28;20199;-64
2023/10/12 14:33:02;;;;;;;15.65;5.55;;;;;21.30;96456.00;;;;8414138;28;20242;-65
2023/10/12 14:37:13;;;;;;;11.73;5.05;;;;;21.30;96452.00;;;;8403681;28;20211;-64
2023/10/12 14:41:18;;;;;;;15.57;6.85;;;;;21.20;96421.00;;;;8415434;28;20560;-64
2023/10/12 14:45:21;;;;;;;15.00;6.40;;;;;21.20;96434.00;;;;8406630;28;21135;-64
2023/10/12 14:49:24;;;;;;;17.02;7.00;;;;;21.20;96424.00;;;;8411936;28;20223;-64
2023/10/12 14:53:29;;;;;;;14.68;8.38;;;;;21.20;96423.00;;;;8410139;28;20863;-64
2023/10/12 14:57:33;;;;;;;14.93;7.20;;;;;21.20;96430.00;;;;8409118;28;20297;-63
2023/10/12 15:01:38;;;;;;;19.17;6.72;;;;;21.10;96427.00;;;;8414004;28;20202;-63
2023/10/12 15:05:42;;;;;;;14.35;6.78;;;;;21.00;96434.00;;;;8412144;28;20227;-63
2023/10/12 15:09:48;;;;;;;11.70;6.80;;;;;21.00;96422.00;;;;8412886;28;20202;-64
2023/10/12 15:13:54;;;;;;;11.35;6.68;;;;;21.00;96420.00;;;;8408637;28;20707;-63
2023/10/12 15:17:59;;;;;;;14.98;6.50;;;;;21.00;96429.00;;;;8412720;28;20252;-64
2023/10/12 15:22:06;;;;;;;22.38;6.50;;;;;20.90;96430.00;;;;8405267;28;20315;-64
2023/10/12 15:26:12;;;;;;;17.20;6.20;;;;;20.80;96411.00;;;;8410843;28;20231;-63
2023/10/12 15:30:17;;;;;;;11.93;5.68;;;;;20.70;96398.00;;;;8397775;28;20207;-64
2023/10/12 15:34:21;;;;;;;15.02;7.05;;;;;20.60;96391.00;;;;8409476;28;20579;-63
2023/10/12 15:38:30;;;;;;;16.50;5.63;;;;;20.60;96383.00;;;;8411009;28;20641;-63
2023/10/12 15:42:33;;;;;;;16.95;6.78;;;;;20.50;96389.00;;;;8414814;28;20208;-63
2023/10/12 15:46:38;;;;;;;12.43;5.95;;;;;20.30;96395.00;;;;8411851;28;20254;-63
2023/10/12 15:50:41;;;;;;;13.48;6.25;;;;;20.30;96391.00;;;;8411894;28;20191;-63
2023/10/12 15:54:47;;;;;;;13.82;6.50;;;;;20.20;96399.00;;;;8408183;28;20202;-63
2023/10/12 15:58:50;;;;;;;10.13;5.60;;;;;20.10;96401.00;;;;8406350;28;20264;-63
2023/10/12 16:02:56;;;;;;;17.85;6.57;;;;;20.10;96407.00;;;;8407357;28;20214;-63
2023/10/12 16:07:05;;;;;;;12.15;5.72;;;;;20.00;96403.00;;;;8411148;28;20239;-64
2023/10/12 16:11:08;;;;;;;15.52;6.07;;;;;19.90;96397.00;;;;8411016;28;20207;-63
2023/10/12 16:15:14;;;;;;;16.42;8.35;;;;;19.70;96373.00;;;;8411874;28;20664;-63
2023/10/12 16:19:19;;;;;;;17.08;6.53;;;;;19.50;96373.00;;;;8411313;28;20227;-63
2023/10/12 16:23:23;;;;;;;26.08;8.23;;;;;19.30;96368.00;;;;8404779;28;20195;-63
2023/10/12 16:27:27;;;;;;;16.35;7.07;;;;;19.10;96360.00;;;;8409274;28;20227;-63
2023/10/12 16:31:34;;;;;;;24.60;7.90;;;;;19.10;96373.00;;;;8413344;28;20255;-63
2023/10/12 16:35:39;;;;;;;23.20;10.32;;;;;19.00;96381.00;;;;8410407;28;20768;-63
2023/10/12 16:39:42;;;;;;;26.33;8.20;;;;;19.00;96391.00;;;;8412869;28;20195;-63
2023/10/12 16:43:47;;;;;;;20.17;7.28;;;;;18.90;96391.00;;;;8409256;28;20218;-63
2023/10/12 16:47:51;;;;;;;27.63;7.53;;;;;18.80;96395.00;;;;8412078;28;20254;-63
2023/10/12 16:51:55;;;;;;;18.13;7.85;;;;;18.70;96401.00;;;;8414379;28;20199;-63
2023/10/12 16:56:00;;;;;;;20.35;7.72;;;;;18.70;96403.00;;;;8407218;28;20206;-63
2023/10/12 17:00:07;;;;;;;15.52;7.03;;;;;18.60;96408.00;;;;8410866;28;20214;-63
2023/10/12 17:04:18;;;;;;;20.55;6.80;;;;;18.50;96408.00;;;;8413088;28;20298;-63
2023/10/12 17:08:23;;;;;;;15.68;7.55;;;;;18.40;96407.00;;;;8414787;28;20223;-63
2023/10/12 17:12:27;;;;;;;15.30;7.10;;;;;18.30;96418.00;;;;8412707;28;20240;-63
2023/10/12 17:16:33;;;;;;;19.65;7.05;;;;;18.10;96419.00;;;;8413750;28;20195;-63
2023/10/12 17:20:37;;;;;;;16.25;6.90;;;;;18.00;96419.00;;;;8406197;28;20196;-63
2023/10/12 17:24:43;;;;;;;21.60;7.43;;;;;17.90;96423.00;;;;8405414;28;20215;-63
2023/10/12 17:28:46;;;;;;;26.85;8.82;;;;;17.90;96428.00;;;;8409544;28;20321;-63
2023/10/12 17:32:49;;;;;;;26.30;8.00;;;;;17.90;96430.00;;;;8413663;28;20648;-63
2023/10/12 17:36:56;;;;;;;24.05;6.65;;;;;17.90;96425.00;;;;8412446;28;20195;-63
2023/10/12 17:41:02;;;;;;;22.88;7.15;;;;;17.80;96418.00;;;;8413431;28;20233;-62
2023/10/12 17:45:10;;;;;;;17.85;8.07;;;;;17.70;96413.00;;;;8412636;28;20598;-62
2023/10/12 17:49:14;;;;;;;21.95;8.10;;;;;17.70;96407.00;;;;8410318;28;20215;-62
2023/10/12 17:53:18;;;;;;;16.55;6.90;;;;;17.70;96412.00;;;;8417423;28;20583;-62
2023/10/12 17:57:22;;;;;;;21.33;6.63;;;;;17.60;96422.00;;;;8415629;28;20206;-62
2023/10/12 18:01:26;;;;;;;24.50;7.35;;;;;17.60;96426.00;;;;8418275;28;20203;-62
2023/10/12 18:05:31;;;;;;;25.20;7.82;;;;;17.60;96416.00;;;;8417475;28;20207;-62
2023/10/12 18:09:37;;;;;;;21.48;8.18;;;;;17.60;96417.00;;;;8413212;28;20192;-62
2023/10/12 18:13:41;;;;;;;16.67;8.35;;;;;17.60;96391.00;;;;8413913;28;20200;-62
2023/10/12 18:17:45;;;;;;;18.63;10.05;;;;;17.60;96406.00;;;;8419363;28;20200;-62
2023/10/12 18:21:48;;;;;;;30.17;9.65;;;;;17.70;96390.00;;;;8414265;28;20244;-62
2023/10/12 18:25:51;;;;;;;16.40;7.65;;;;;17.70;96398.00;;;;8413824;28;20203;-62
2023/10/12 18:29:55;;;;;;;21.67;8.55;;;;;17.70;96394.00;;;;8409840;28;20213;-62
2023/10/12 18:33:59;;;;;;;27.30;10.02;;;;;17.70;96406.00;;;;8416429;28;20203;-62
2023/10/12 18:38:03;;;;;;;19.38;9.77;;;;;17.70;96399.00;;;;8414665;28;20891;-62
2023/10/12 18:42:06;;;;;;;25.90;11.50;;;;;17.80;96389.00;;;;8403865;28;20302;-62
2023/10/12 18:46:12;;;;;;;20.65;10.55;;;;;17.80;96400.00;;;;8408114;28;20227;-62
2023/10/12 18:50:16;;;;;;;25.33;10.32;;;;;17.80;96406.00;;;;8403170;28;20286;-62
2023/10/12 18:54:21;;;;;;;24.27;10.38;;;;;17.80;96401.00;;;;8410803;28;20200;-62
2023/10/12 18:58:25;;;;;;;24.83;9.60;;;;;17.80;96410.00;;;;8407473;28;20991;-63
2023/10/12 19:02:29;;;;;;;19.88;8.65;;;;;17.80;96424.00;;;;8411468;28;20841;-65
2023/10/12 19:06:34;;;;;;;18.88;9.30;;;;;17.80;96423.00;;;;8411265;28;20223;-65
2023/10/12 19:10:37;;;;;;;23.95;9.40;;;;;17.70;96412.00;;;;8412172;28;20195;-65
2023/10/12 19:14:40;;;;;;;17.48;7.75;;;;;17.50;96431.00;;;;8412109;28;20199;-65
2023/10/12 19:18:45;;;;;;;12.68;7.15;;;;;17.40;96417.00;;;;8413677;28;20291;-65
2023/10/12 19:22:50;;;;;;;21.35;8.48;;;;;17.40;96424.00;;;;8409368;28;20239;-64
2023/10/12 19:26:53;;;;;;;24.35;8.63;;;;;17.50;96421.00;;;;8408378;28;20215;-64
2023/10/12 19:30:59;;;;;;;15.23;7.65;;;;;17.50;96427.00;;;;8414282;28;20294;-63
2023/10/12 19:35:08;;;;;;;16.23;7.15;;;;;17.50;96427.00;;;;8412608;28;20282;-65
2023/10/12 19:39:11;;;;;;;13.65;7.35;;;;;17.60;96451.00;;;;8410221;28;20828;-65
2023/10/12 19:43:17;;;;;;;16.55;6.97;;;;;17.80;96456.00;;;;8413002;28;20195;-66
2023/10/12 19:47:21;;;;;;;18.40;7.35;;;;;17.80;96456.00;;;;8407648;28;20227;-65
2023/10/12 19:51:27;;;;;;;15.20;7.18;;;;;17.80;96470.00;;;;8413296;28;20693;-66
2023/10/12 19:55:33;;;;;;;14.30;7.20;;;;;17.70;96478.00;;;;8410597;28;20817;-65
2023/10/12 19:59:36;;;;;;;22.27;7.78;;;;;17.50;96490.00;;;;8410476;28;20192;-67
2023/10/12 20:03:39;;;;;;;16.55;7.18;;;;;17.30;96470.00;;;;8410487;28;20250;-66
2023/10/12 20:07:44;;;;;;;16.55;7.78;;;;;17.10;96471.00;;;;8412246;28;20258;-65
2023/10/12 20:11:47;;;;;;;14.32;7.72;;;;;17.00;96458.00;;;;8410150;28;20202;-64
2023/10/12 20:15:51;;;;;;;16.48;7.90;;;;;16.90;96466.00;;;;8408522;28;20226;-65
2023/10/12 20:19:55;;;;;;;23.02;8.82;;;;;16.90;96480.00;;;;8410500;28;20213;-64
2023/10/12 20:24:01;;;;;;;15.95;8.52;;;;;16.90;96464.00;;;;8410440;28;20211;-65
2023/10/12 20:28:05;;;;;;;13.77;8.38;;;;;16.90;96476.00;;;;8409417;28;20237;-64
2023/10/12 20:32:08;;;;;;;16.23;8.68;;;;;17.00;96489.00;;;;8406954;28;20195;-64
2023/10/12 20:36:12;;;;;;;21.15;8.63;;;;;17.00;96483.00;;;;8409072;28;20204;-64
2023/10/12 20:40:18;;;;;;;17.02;9.18;;;;;17.00;96466.00;;;;8411443;28;20191;-65